sensor_id;sensor_type;location;lat;lon;timestamp;pressure;altitude;pressure_sealevel;temperature;humidity
11621;BME280;5866;49.094;11.900;2023-04-20T00:00:58;96185.63;;;4.27;100.00
11621;BME280;5866;49.094;11.900;2023-04-20T00:03:26;96188.97;;;4.18;100.00
11621;BME280;5866;49.094;11.900;2023-04-20T00:05:54;96187.41;;;3.51;100.00
11621;BME280;5866;49.094;11.900;2023-04-20T00:08:21;96188.84;;;3.77;100.00
11621;BME280;5866;49.094;11.900;2023-04-20T00:10:49;96180.97;;;3.77;100.00
11621;BME280;5866;49.094;11.900;2023-04-20T00:13:18;96182.41;;;3.70;100.00
11621;BME280;5866;49.094;11.900;2023-04-20T00:15:45;96182.84;;;3.86;100.00
11621;BME280;5866;49.094;11.900;2023-04-20T00:18:13;96175.47;;;3.69;100.00
11621;BME280;5866;49.094;11.900;2023-04-20T00:20:40;96170.13;;;3.70;100.00
11621;BME280;5866;49.094;11.900;2023-04-20T00:23:08;96172.59;;;3.83;100.00
11621;BME280;5866;49.094;11.900;2023-04-20T00:25:35;96165.84;;;3.25;100.00
11621;BME280;5866;49.094;11.900;2023-04-20T00:28:03;96169.91;;;3.18;100.00
11621;BME280;5866;49.094;11.900;2023-04-20T00:30:32;96161.78;;;3.54;100.00
11621;BME280;5866;49.094;11.900;2023-04-20T00:33:00;96159.41;;;3.40;100.00
11621;BME280;5866;49.094;11.900;2023-04-20T00:35:27;96154.50;;;3.69;100.00
11621;BME280;5866;49.094;11.900;2023-04-20T00:37:55;96144.25;;;4.09;100.00
11621;BME280;5866;49.094;11.900;2023-04-20T00:40:22;96147.81;;;4.19;100.00
11621;BME280;5866;49.094;11.900;2023-04-20T00:42:50;96148.72;;;4.29;100.00
11621;BME280;5866;49.094;11.900;2023-04-20T00:45:17;96141.97;;;4.15;100.00
11621;BME280;5866;49.094;11.900;2023-04-20T00:47:49;96135.47;;;3.98;100.00
11621;BME280;5866;49.094;11.900;2023-04-20T00:50:17;96135.78;;;4.05;100.00
11621;BME280;5866;49.094;11.900;2023-04-20T00:52:44;96136.94;;;3.80;100.00
11621;BME280;5866;49.094;11.900;2023-04-20T00:55:13;96137.50;;;3.08;100.00
11621;BME280;5866;49.094;11.900;2023-04-20T00:57:41;96153.97;;;3.10;100.00
11621;BME280;5866;49.094;11.900;2023-04-20T01:00:11;96139.09;;;3.75;100.00
11621;BME280;5866;49.094;11.900;2023-04-20T01:02:41;96134.97;;;4.04;100.00
11621;BME280;5866;49.094;11.900;2023-04-20T01:05:10;96142.25;;;2.92;100.00
11621;BME280;5866;49.094;11.900;2023-04-20T01:07:37;96142.16;;;2.36;100.00
11621;BME280;5866;49.094;11.900;2023-04-20T01:10:06;96145.06;;;2.21;100.00
11621;BME280;5866;49.094;11.900;2023-04-20T01:12:34;96144.78;;;2.48;100.00
11621;BME280;5866;49.094;11.900;2023-04-20T01:15:02;96134.88;;;2.97;100.00
11621;BME280;5866;49.094;11.900;2023-04-20T01:17:30;96130.66;;;3.61;100.00
11621;BME280;5866;49.094;11.900;2023-04-20T01:19:58;96117.88;;;3.78;100.00
11621;BME280;5866;49.094;11.900;2023-04-20T01:22:27;96117.75;;;2.93;100.00
11621;BME280;5866;49.094;11.900;2023-04-20T01:24:55;96116.00;;;2.48;100.00
11621;BME280;5866;49.094;11.900;2023-04-20T01:27:22;96124.22;;;2.08;100.00
11621;BME280;5866;49.094;11.900;2023-04-20T01:29:50;96124.50;;;2.27;100.00
11621;BME280;5866;49.094;11.900;2023-04-20T01:32:17;96127.56;;;2.45;100.00
11621;BME280;5866;49.094;11.900;2023-04-20T01:34:44;96132.47;;;2.83;100.00
11621;BME280;5866;49.094;11.900;2023-04-20T01:37:12;96120.34;;;3.26;100.00
11621;BME280;5866;49.094;11.900;2023-04-20T01:39:41;96124.63;;;2.83;100.00
11621;BME280;5866;49.094;11.900;2023-04-20T01:42:09;96118.44;;;2.62;100.00
11621;BME280;5866;49.094;11.900;2023-04-20T01:44:37;96118.19;;;2.98;100.00
11621;BME280;5866;49.094;11.900;2023-04-20T01:47:05;96116.66;;;2.95;100.00
11621;BME280;5866;49.094;11.900;2023-04-20T01:49:33;96106.91;;;3.31;100.00
11621;BME280;5866;49.094;11.900;2023-04-20T01:52:00;96093.44;;;3.67;100.00
11621;BME280;5866;49.094;11.900;2023-04-20T01:54:28;96098.81;;;3.76;100.00
11621;BME280;5866;49.094;11.900;2023-04-20T01:56:57;96095.28;;;3.55;100.00
11621;BME280;5866;49.094;11.900;2023-04-20T01:59:24;96108.19;;;3.47;100.00
11621;BME280;5866;49.094;11.900;2023-04-20T02:01:52;96111.66;;;3.37;100.00
11621;BME280;5866;49.094;11.900;2023-04-20T02:04:19;96109.41;;;3.10;100.00
11621;BME280;5866;49.094;11.900;2023-04-20T02:06:47;96101.50;;;2.77;100.00
11621;BME280;5866;49.094;11.900;2023-04-20T02:09:14;96111.53;;;2.83;100.00
11621;BME280;5866;49.094;11.900;2023-04-20T02:11:42;96113.69;;;2.78;100.00
11621;BME280;5866;49.094;11.900;2023-04-20T02:14:11;96105.47;;;2.93;100.00
11621;BME280;5866;49.094;11.900;2023-04-20T02:16:40;96096.91;;;3.02;100.00
11621;BME280;5866;49.094;11.900;2023-04-20T02:19:08;96099.84;;;3.42;100.00
11621;BME280;5866;49.094;11.900;2023-04-20T02:21:35;96090.50;;;3.60;100.00
11621;BME280;5866;49.094;11.900;2023-04-20T02:24:03;96090.81;;;3.24;100.00
11621;BME280;5866;49.094;11.900;2023-04-20T02:26:31;96088.63;;;3.51;100.00
11621;BME280;5866;49.094;11.900;2023-04-20T02:28:59;96095.78;;;3.49;100.00
11621;BME280;5866;49.094;11.900;2023-04-20T02:31:28;96088.06;;;3.79;100.00
11621;BME280;5866;49.094;11.900;2023-04-20T02:33:55;96081.53;;;4.47;100.00
11621;BME280;5866;49.094;11.900;2023-04-20T02:36:23;96080.78;;;4.86;100.00
11621;BME280;5866;49.094;11.900;2023-04-20T02:38:50;96078.94;;;4.98;100.00
11621;BME280;5866;49.094;11.900;2023-04-20T02:41:18;96072.91;;;3.83;100.00
11621;BME280;5866;49.094;11.900;2023-04-20T02:43:45;96077.72;;;3.98;100.00
11621;BME280;5866;49.094;11.900;2023-04-20T02:46:13;96083.31;;;4.05;100.00
11621;BME280;5866;49.094;11.900;2023-04-20T02:48:42;96080.41;;;4.40;100.00
11621;BME280;5866;49.094;11.900;2023-04-20T02:51:10;96084.44;;;3.49;100.00
11621;BME280;5866;49.094;11.900;2023-04-20T02:53:37;96079.53;;;3.66;100.00
11621;BME280;5866;49.094;11.900;2023-04-20T02:56:05;96087.44;;;3.44;100.00
11621;BME280;5866;49.094;11.900;2023-04-20T02:58:33;96087.94;;;3.38;100.00
11621;BME280;5866;49.094;11.900;2023-04-20T03:01:01;96089.16;;;3.12;100.00
11621;BME280;5866;49.094;11.900;2023-04-20T03:03:30;96091.03;;;3.32;100.00
11621;BME280;5866;49.094;11.900;2023-04-20T03:05:59;96082.22;;;3.87;100.00
11621;BME280;5866;49.094;11.900;2023-04-20T03:08:26;96076.75;;;4.31;100.00
11621;BME280;5866;49.094;11.900;2023-04-20T03:10:54;96077.50;;;4.63;100.00
11621;BME280;5866;49.094;11.900;2023-04-20T03:13:21;96074.19;;;4.41;100.00
11621;BME280;5866;49.094;11.900;2023-04-20T03:15:49;96069.31;;;4.77;100.00
11621;BME280;5866;49.094;11.900;2023-04-20T03:18:16;96075.69;;;4.84;100.00
11621;BME280;5866;49.094;11.900;2023-04-20T03:20:44;96071.34;;;3.91;100.00
11621;BME280;5866;49.094;11.900;2023-04-20T03:23:13;96073.84;;;3.50;100.00
11621;BME280;5866;49.094;11.900;2023-04-20T03:25:40;96083.19;;;3.21;100.00
11621;BME280;5866;49.094;11.900;2023-04-20T03:28:08;96084.16;;;2.98;100.00
11621;BME280;5866;49.094;11.900;2023-04-20T03:30:36;96087.63;;;3.09;100.00
11621;BME280;5866;49.094;11.900;2023-04-20T03:33:03;96082.47;;;3.19;100.00
11621;BME280;5866;49.094;11.900;2023-04-20T03:35:31;96090.34;;;2.97;100.00
11621;BME280;5866;49.094;11.900;2023-04-20T03:37:59;96092.72;;;3.22;100.00
11621;BME280;5866;49.094;11.900;2023-04-20T03:40:27;96078.63;;;3.45;100.00
11621;BME280;5866;49.094;11.900;2023-04-20T03:42:55;96077.31;;;3.82;100.00
11621;BME280;5866;49.094;11.900;2023-04-20T03:45:22;96076.94;;;3.44;100.00
11621;BME280;5866;49.094;11.900;2023-04-20T03:47:50;96078.84;;;3.53;100.00
11621;BME280;5866;49.094;11.900;2023-04-20T03:50:18;96076.91;;;3.66;100.00
11621;BME280;5866;49.094;11.900;2023-04-20T03:52:45;96080.53;;;3.43;100.00
11621;BME280;5866;49.094;11.900;2023-04-20T03:55:13;96083.13;;;3.54;100.00
11621;BME280;5866;49.094;11.900;2023-04-20T03:57:42;96083.91;;;3.12;100.00
11621;BME280;5866;49.094;11.900;2023-04-20T04:00:10;96076.38;;;3.18;100.00
11621;BME280;5866;49.094;11.900;2023-04-20T04:02:38;96075.56;;;2.96;100.00
11621;BME280;5866;49.094;11.900;2023-04-20T04:05:06;96068.69;;;2.95;100.00
11621;BME280;5866;49.094;11.900;2023-04-20T04:07:34;96079.50;;;2.90;100.00
11621;BME280;5866;49.094;11.900;2023-04-20T04:10:01;96076.28;;;3.20;100.00
11621;BME280;5866;49.094;11.900;2023-04-20T04:12:31;96080.44;;;3.34;100.00
11621;BME280;5866;49.094;11.900;2023-04-20T04:14:59;96083.09;;;3.00;100.00
11621;BME280;5866;49.094;11.900;2023-04-20T04:17:27;96076.50;;;3.28;100.00
11621;BME280;5866;49.094;11.900;2023-04-20T04:19:54;96083.22;;;3.10;100.00
11621;BME280;5866;49.094;11.900;2023-04-20T04:22:22;96084.09;;;3.42;100.00
11621;BME280;5866;49.094;11.900;2023-04-20T04:24:49;96072.69;;;3.43;100.00
11621;BME280;5866;49.094;11.900;2023-04-20T04:27:19;96072.25;;;4.01;100.00
11621;BME280;5866;49.094;11.900;2023-04-20T04:29:47;96075.31;;;3.43;100.00
11621;BME280;5866;49.094;11.900;2023-04-20T04:32:16;96067.22;;;3.67;100.00
11621;BME280;5866;49.094;11.900;2023-04-20T04:34:44;96071.75;;;3.22;100.00
11621;BME280;5866;49.094;11.900;2023-04-20T04:37:13;96078.84;;;3.42;100.00
11621;BME280;5866;49.094;11.900;2023-04-20T04:39:40;96085.44;;;3.37;100.00
11621;BME280;5866;49.094;11.900;2023-04-20T04:42:08;96072.91;;;3.51;100.00
11621;BME280;5866;49.094;11.900;2023-04-20T04:44:36;96077.44;;;3.38;100.00
11621;BME280;5866;49.094;11.900;2023-04-20T04:47:05;96070.91;;;3.10;100.00
11621;BME280;5866;49.094;11.900;2023-04-20T04:49:36;96076.78;;;3.14;100.00
11621;BME280;5866;49.094;11.900;2023-04-20T04:52:07;96073.75;;;3.30;100.00
11621;BME280;5866;49.094;11.900;2023-04-20T04:54:34;96084.38;;;3.39;100.00
11621;BME280;5866;49.094;11.900;2023-04-20T04:57:02;96073.63;;;3.42;100.00
11621;BME280;5866;49.094;11.900;2023-04-20T04:59:30;96079.34;;;3.36;100.00
11621;BME280;5866;49.094;11.900;2023-04-20T05:01:57;96069.56;;;3.38;100.00
11621;BME280;5866;49.094;11.900;2023-04-20T05:04:25;96075.94;;;3.25;100.00
11621;BME280;5866;49.094;11.900;2023-04-20T05:06:54;96079.41;;;3.14;100.00
11621;BME280;5866;49.094;11.900;2023-04-20T05:09:21;96082.59;;;3.06;100.00
11621;BME280;5866;49.094;11.900;2023-04-20T05:11:49;96080.22;;;3.14;100.00
11621;BME280;5866;49.094;11.900;2023-04-20T05:14:16;96074.75;;;3.06;100.00
11621;BME280;5866;49.094;11.900;2023-04-20T05:16:44;96077.50;;;3.16;100.00
11621;BME280;5866;49.094;11.900;2023-04-20T05:19:11;96073.66;;;3.20;100.00
11621;BME280;5866;49.094;11.900;2023-04-20T05:21:39;96084.16;;;3.20;100.00
11621;BME280;5866;49.094;11.900;2023-04-20T05:24:07;96083.44;;;3.18;100.00
11621;BME280;5866;49.094;11.900;2023-04-20T05:26:35;96081.41;;;3.33;100.00
11621;BME280;5866;49.094;11.900;2023-04-20T05:29:02;96073.88;;;3.39;100.00
11621;BME280;5866;49.094;11.900;2023-04-20T05:31:30;96084.38;;;3.39;100.00
11621;BME280;5866;49.094;11.900;2023-04-20T05:33:58;96077.53;;;3.48;100.00
11621;BME280;5866;49.094;11.900;2023-04-20T05:36:27;96066.44;;;3.55;100.00
11621;BME280;5866;49.094;11.900;2023-04-20T05:38:55;96078.22;;;3.61;100.00
11621;BME280;5866;49.094;11.900;2023-04-20T05:41:24;96076.41;;;4.04;100.00
11621;BME280;5866;49.094;11.900;2023-04-20T05:43:52;96075.22;;;4.29;100.00
11621;BME280;5866;49.094;11.900;2023-04-20T05:46:20;96083.94;;;4.50;100.00
11621;BME280;5866;49.094;11.900;2023-04-20T05:48:48;96077.28;;;4.46;100.00
11621;BME280;5866;49.094;11.900;2023-04-20T05:51:16;96079.81;;;4.57;100.00
11621;BME280;5866;49.094;11.900;2023-04-20T05:53:43;96078.59;;;4.40;100.00
11621;BME280;5866;49.094;11.900;2023-04-20T05:56:11;96077.78;;;4.40;100.00
11621;BME280;5866;49.094;11.900;2023-04-20T05:58:40;96082.53;;;4.46;100.00
11621;BME280;5866;49.094;11.900;2023-04-20T06:01:07;96080.19;;;4.32;100.00
11621;BME280;5866;49.094;11.900;2023-04-20T06:03:35;96082.53;;;4.46;100.00
11621;BME280;5866;49.094;11.900;2023-04-20T06:06:03;96081.59;;;4.36;100.00
11621;BME280;5866;49.094;11.900;2023-04-20T06:08:31;96080.59;;;4.27;100.00
11621;BME280;5866;49.094;11.900;2023-04-20T06:10:58;96074.03;;;4.22;100.00
11621;BME280;5866;49.094;11.900;2023-04-20T06:13:25;96070.47;;;4.23;100.00
11621;BME280;5866;49.094;11.900;2023-04-20T06:15:54;96069.25;;;4.27;100.00
11621;BME280;5866;49.094;11.900;2023-04-20T06:18:22;96068.97;;;4.50;100.00
11621;BME280;5866;49.094;11.900;2023-04-20T06:20:49;96075.91;;;4.51;100.00
11621;BME280;5866;49.094;11.900;2023-04-20T06:23:17;96077.75;;;4.81;100.00
11621;BME280;5866;49.094;11.900;2023-04-20T06:25:44;96066.97;;;4.84;100.00
11621;BME280;5866;49.094;11.900;2023-04-20T06:28:12;96061.72;;;5.14;100.00
11621;BME280;5866;49.094;11.900;2023-04-20T06:30:39;96059.69;;;5.37;100.00
11621;BME280;5866;49.094;11.900;2023-04-20T06:33:08;96067.56;;;5.27;100.00
11621;BME280;5866;49.094;11.900;2023-04-20T06:35:39;96069.66;;;5.33;100.00
11621;BME280;5866;49.094;11.900;2023-04-20T06:38:06;96060.28;;;5.59;100.00
11621;BME280;5866;49.094;11.900;2023-04-20T06:40:34;96065.09;;;5.94;100.00
11621;BME280;5866;49.094;11.900;2023-04-20T06:43:01;96061.19;;;5.89;100.00
11621;BME280;5866;49.094;11.900;2023-04-20T06:45:29;96058.97;;;6.03;100.00
11621;BME280;5866;49.094;11.900;2023-04-20T06:47:59;96065.91;;;6.33;100.00
11621;BME280;5866;49.094;11.900;2023-04-20T06:50:28;96061.03;;;6.48;100.00
11621;BME280;5866;49.094;11.900;2023-04-20T06:52:55;96057.34;;;6.21;100.00
11621;BME280;5866;49.094;11.900;2023-04-20T06:55:23;96057.03;;;6.43;100.00
11621;BME280;5866;49.094;11.900;2023-04-20T06:57:50;96062.03;;;6.08;100.00
11621;BME280;5866;49.094;11.900;2023-04-20T07:00:18;96064.94;;;6.43;100.00
11621;BME280;5866;49.094;11.900;2023-04-20T07:02:48;96069.78;;;6.29;100.00
11621;BME280;5866;49.094;11.900;2023-04-20T07:05:16;96060.31;;;6.74;100.00
11621;BME280;5866;49.094;11.900;2023-04-20T07:07:45;96059.22;;;6.67;100.00
11621;BME280;5866;49.094;11.900;2023-04-20T07:10:13;96063.56;;;6.11;100.00
11621;BME280;5866;49.094;11.900;2023-04-20T07:12:41;96053.97;;;6.48;100.00
11621;BME280;5866;49.094;11.900;2023-04-20T07:15:10;96052.03;;;6.50;100.00
11621;BME280;5866;49.094;11.900;2023-04-20T07:17:37;96055.25;;;6.90;100.00
11621;BME280;5866;49.094;11.900;2023-04-20T07:20:06;96050.63;;;6.65;100.00
11621;BME280;5866;49.094;11.900;2023-04-20T07:22:34;96051.53;;;7.20;100.00
11621;BME280;5866;49.094;11.900;2023-04-20T07:25:05;96061.84;;;7.13;100.00
11621;BME280;5866;49.094;11.900;2023-04-20T07:27:34;96056.56;;;7.13;100.00
11621;BME280;5866;49.094;11.900;2023-04-20T07:30:03;96058.69;;;6.45;100.00
11621;BME280;5866;49.094;11.900;2023-04-20T07:32:32;96066.47;;;6.27;100.00
11621;BME280;5866;49.094;11.900;2023-04-20T07:34:59;96057.03;;;6.05;100.00
11621;BME280;5866;49.094;11.900;2023-04-20T07:37:27;96058.94;;;6.61;100.00
11621;BME280;5866;49.094;11.900;2023-04-20T07:39:54;96060.91;;;6.39;100.00
11621;BME280;5866;49.094;11.900;2023-04-20T07:42:23;96046.78;;;6.31;100.00
11621;BME280;5866;49.094;11.900;2023-04-20T07:44:50;96055.25;;;6.25;100.00
11621;BME280;5866;49.094;11.900;2023-04-20T07:47:18;96038.94;;;7.41;100.00
11621;BME280;5866;49.094;11.900;2023-04-20T07:49:45;96050.53;;;8.63;100.00
11621;BME280;5866;49.094;11.900;2023-04-20T07:52:13;96041.41;;;9.93;88.00
11621;BME280;5866;49.094;11.900;2023-04-20T07:54:42;96043.75;;;9.20;87.20
11621;BME280;5866;49.094;11.900;2023-04-20T07:57:10;96044.41;;;8.63;91.92
11621;BME280;5866;49.094;11.900;2023-04-20T07:59:39;96032.97;;;8.01;96.54
11621;BME280;5866;49.094;11.900;2023-04-20T08:02:07;96038.03;;;9.33;89.16
11621;BME280;5866;49.094;11.900;2023-04-20T08:04:35;96035.38;;;9.83;81.87
11621;BME280;5866;49.094;11.900;2023-04-20T08:07:03;96033.13;;;9.46;81.07
11621;BME280;5866;49.094;11.900;2023-04-20T08:09:31;96038.38;;;8.27;91.53
11621;BME280;5866;49.094;11.900;2023-04-20T08:11:58;96040.84;;;8.29;93.62
11621;BME280;5866;49.094;11.900;2023-04-20T08:14:26;96037.25;;;9.07;88.15
11621;BME280;5866;49.094;11.900;2023-04-20T08:16:55;96047.47;;;8.76;86.80
11621;BME280;5866;49.094;11.900;2023-04-20T08:19:23;96034.03;;;8.95;89.55
11621;BME280;5866;49.094;11.900;2023-04-20T08:21:50;96032.28;;;9.04;86.21
11621;BME280;5866;49.094;11.900;2023-04-20T08:24:19;96031.66;;;8.58;88.29
11621;BME280;5866;49.094;11.900;2023-04-20T08:26:46;96035.69;;;8.10;90.74
11621;BME280;5866;49.094;11.900;2023-04-20T08:29:14;96034.09;;;7.99;92.83
11621;BME280;5866;49.094;11.900;2023-04-20T08:31:42;96046.09;;;7.76;97.98
11621;BME280;5866;49.094;11.900;2023-04-20T08:34:11;96040.03;;;7.83;95.66
11621;BME280;5866;49.094;11.900;2023-04-20T08:36:39;96023.53;;;7.99;95.88
11621;BME280;5866;49.094;11.900;2023-04-20T08:39:08;96029.28;;;7.77;98.20
11621;BME280;5866;49.094;11.900;2023-04-20T08:41:36;96031.47;;;7.37;98.40
11621;BME280;5866;49.094;11.900;2023-04-20T08:44:04;96021.38;;;6.95;100.00
11621;BME280;5866;49.094;11.900;2023-04-20T08:46:33;96032.28;;;6.73;100.00
11621;BME280;5866;49.094;11.900;2023-04-20T08:49:01;96025.63;;;6.69;100.00
11621;BME280;5866;49.094;11.900;2023-04-20T08:51:30;96031.25;;;7.20;100.00
11621;BME280;5866;49.094;11.900;2023-04-20T08:53:58;96017.97;;;7.40;100.00
11621;BME280;5866;49.094;11.900;2023-04-20T08:56:33;96028.59;;;6.93;100.00
11621;BME280;5866;49.094;11.900;2023-04-20T08:59:01;96026.44;;;6.79;100.00
11621;BME280;5866;49.094;11.900;2023-04-20T09:01:31;96028.66;;;7.11;100.00
11621;BME280;5866;49.094;11.900;2023-04-20T09:04:02;96023.91;;;6.87;100.00
11621;BME280;5866;49.094;11.900;2023-04-20T09:06:33;96034.84;;;6.92;100.00
11621;BME280;5866;49.094;11.900;2023-04-20T09:09:08;96028.94;;;7.08;100.00
11621;BME280;5866;49.094;11.900;2023-04-20T09:11:36;96035.78;;;7.01;100.00
11621;BME280;5866;49.094;11.900;2023-04-20T09:14:05;96035.56;;;7.21;100.00
11621;BME280;5866;49.094;11.900;2023-04-20T09:16:35;96023.28;;;7.57;99.94
11621;BME280;5866;49.094;11.900;2023-04-20T09:19:05;96026.09;;;7.73;99.32
11621;BME280;5866;49.094;11.900;2023-04-20T09:21:46;96024.75;;;7.87;98.16
11621;BME280;5866;49.094;11.900;2023-04-20T09:24:14;96020.28;;;8.23;97.38
11621;BME280;5866;49.094;11.900;2023-04-20T09:26:42;96022.75;;;7.54;96.71
11621;BME280;5866;49.094;11.900;2023-04-20T09:29:15;96018.41;;;7.80;99.53
11621;BME280;5866;49.094;11.900;2023-04-20T09:31:43;96022.09;;;8.22;96.61
11621;BME280;5866;49.094;11.900;2023-04-20T09:34:11;96023.84;;;8.74;93.28
11621;BME280;5866;49.094;11.900;2023-04-20T09:36:41;96017.75;;;8.82;91.10
11621;BME280;5866;49.094;11.900;2023-04-20T09:39:10;96022.19;;;7.95;92.78
11621;BME280;5866;49.094;11.900;2023-04-20T09:41:40;96015.41;;;8.10;94.40
11621;BME280;5866;49.094;11.900;2023-04-20T09:44:09;96016.44;;;8.17;95.52
11621;BME280;5866;49.094;11.900;2023-04-20T09:46:38;96020.91;;;8.34;95.02
11621;BME280;5866;49.094;11.900;2023-04-20T09:49:07;96012.59;;;8.12;93.69
11621;BME280;5866;49.094;11.900;2023-04-20T09:51:37;96008.81;;;7.96;97.22
11621;BME280;5866;49.094;11.900;2023-04-20T09:54:09;96021.41;;;8.02;98.68
11621;BME280;5866;49.094;11.900;2023-04-20T09:56:37;96016.06;;;8.12;97.06
11621;BME280;5866;49.094;11.900;2023-04-20T09:59:04;96013.81;;;7.99;97.16
11621;BME280;5866;49.094;11.900;2023-04-20T10:01:34;95995.41;;;7.72;97.80
11621;BME280;5866;49.094;11.900;2023-04-20T10:04:06;96005.03;;;7.81;100.00
11621;BME280;5866;49.094;11.900;2023-04-20T10:06:35;96014.88;;;8.42;100.00
11621;BME280;5866;49.094;11.900;2023-04-20T10:09:04;96000.34;;;8.46;94.91
11621;BME280;5866;49.094;11.900;2023-04-20T10:11:35;96003.47;;;8.67;93.78
11621;BME280;5866;49.094;11.900;2023-04-20T10:14:20;95986.25;;;9.30;93.10
11621;BME280;5866;49.094;11.900;2023-04-20T10:16:58;95984.19;;;9.58;87.78
11621;BME280;5866;49.094;11.900;2023-04-20T10:19:36;95974.50;;;8.91;90.84
11621;BME280;5866;49.094;11.900;2023-04-20T10:22:04;95977.75;;;8.51;94.29
11621;BME280;5866;49.094;11.900;2023-04-20T10:24:32;95977.78;;;8.85;96.21
11621;BME280;5866;49.094;11.900;2023-04-20T10:27:00;95975.19;;;8.67;93.70
11621;BME280;5866;49.094;11.900;2023-04-20T10:29:29;95971.22;;;8.63;94.65
11621;BME280;5866;49.094;11.900;2023-04-20T10:31:59;95968.25;;;8.66;94.18
11621;BME280;5866;49.094;11.900;2023-04-20T10:34:30;95962.38;;;8.80;94.22
11621;BME280;5866;49.094;11.900;2023-04-20T10:37:06;95969.53;;;8.88;94.40
11621;BME280;5866;49.094;11.900;2023-04-20T10:39:35;95948.41;;;9.38;91.04
11621;BME280;5866;49.094;11.900;2023-04-20T10:42:05;95958.34;;;9.52;88.02
11621;BME280;5866;49.094;11.900;2023-04-20T10:44:32;95955.31;;;9.31;88.36
11621;BME280;5866;49.094;11.900;2023-04-20T10:47:00;95946.34;;;9.16;89.28
11621;BME280;5866;49.094;11.900;2023-04-20T10:49:28;95936.31;;;9.35;86.40
11621;BME280;5866;49.094;11.900;2023-04-20T10:51:57;95934.16;;;9.31;88.15
11621;BME280;5866;49.094;11.900;2023-04-20T10:54:25;95940.78;;;9.35;88.14
11621;BME280;5866;49.094;11.900;2023-04-20T10:56:54;95923.47;;;9.56;85.82
11621;BME280;5866;49.094;11.900;2023-04-20T10:59:23;95927.22;;;9.38;86.01
11621;BME280;5866;49.094;11.900;2023-04-20T11:01:51;95914.28;;;9.19;86.47
11621;BME280;5866;49.094;11.900;2023-04-20T11:04:28;95908.63;;;9.14;86.53
11621;BME280;5866;49.094;11.900;2023-04-20T11:07:03;95901.72;;;9.37;89.13
11621;BME280;5866;49.094;11.900;2023-04-20T11:09:33;95894.06;;;9.18;88.54
11621;BME280;5866;49.094;11.900;2023-04-20T11:12:02;95879.94;;;9.67;88.33
11621;BME280;5866;49.094;11.900;2023-04-20T11:14:33;95874.63;;;9.51;87.16
11621;BME280;5866;49.094;11.900;2023-04-20T11:17:03;95873.47;;;9.37;87.07
11621;BME280;5866;49.094;11.900;2023-04-20T11:19:32;95873.47;;;9.45;86.77
11621;BME280;5866;49.094;11.900;2023-04-20T11:22:00;95884.88;;;9.46;86.88
11621;BME280;5866;49.094;11.900;2023-04-20T11:24:30;95882.25;;;9.54;85.88
11621;BME280;5866;49.094;11.900;2023-04-20T11:26:59;95890.00;;;9.47;86.69
11621;BME280;5866;49.094;11.900;2023-04-20T11:29:32;95894.81;;;9.36;86.90
11621;BME280;5866;49.094;11.900;2023-04-20T11:32:02;95891.19;;;9.69;85.99
11621;BME280;5866;49.094;11.900;2023-04-20T11:34:31;95878.94;;;10.24;82.20
11621;BME280;5866;49.094;11.900;2023-04-20T11:37:02;95881.38;;;10.50;79.17
11621;BME280;5866;49.094;11.900;2023-04-20T11:39:31;95880.88;;;10.93;75.74
11621;BME280;5866;49.094;11.900;2023-04-20T11:41:59;95869.38;;;11.62;74.86
11621;BME280;5866;49.094;11.900;2023-04-20T11:44:27;95872.72;;;12.24;70.65
11621;BME280;5866;49.094;11.900;2023-04-20T11:46:56;95873.38;;;12.99;63.37
11621;BME280;5866;49.094;11.900;2023-04-20T11:49:24;95868.09;;;13.35;63.23
11621;BME280;5866;49.094;11.900;2023-04-20T11:51:52;95864.28;;;13.80;61.38
11621;BME280;5866;49.094;11.900;2023-04-20T11:54:20;95870.06;;;13.83;59.43
11621;BME280;5866;49.094;11.900;2023-04-20T11:56:49;95871.38;;;13.51;60.02
11621;BME280;5866;49.094;11.900;2023-04-20T11:59:17;95866.03;;;14.15;60.56
11621;BME280;5866;49.094;11.900;2023-04-20T12:01:46;95864.25;;;14.22;58.21
11621;BME280;5866;49.094;11.900;2023-04-20T12:04:15;95857.31;;;14.27;59.13
11621;BME280;5866;49.094;11.900;2023-04-20T12:06:43;95845.94;;;14.40;59.08
11621;BME280;5866;49.094;11.900;2023-04-20T12:09:11;95848.22;;;15.11;56.43
11621;BME280;5866;49.094;11.900;2023-04-20T12:11:39;95845.16;;;14.46;57.05
11621;BME280;5866;49.094;11.900;2023-04-20T12:14:06;95865.16;;;13.44;59.97
11621;BME280;5866;49.094;11.900;2023-04-20T12:16:34;95865.28;;;12.34;65.93
11621;BME280;5866;49.094;11.900;2023-04-20T12:19:01;95864.00;;;12.30;69.05
11621;BME280;5866;49.094;11.900;2023-04-20T12:21:30;95850.91;;;12.58;68.43
11621;BME280;5866;49.094;11.900;2023-04-20T12:23:58;95855.25;;;11.70;72.06
11621;BME280;5866;49.094;11.900;2023-04-20T12:26:26;95838.78;;;12.26;69.16
11621;BME280;5866;49.094;11.900;2023-04-20T12:29:03;95834.06;;;13.16;65.66
11621;BME280;5866;49.094;11.900;2023-04-20T12:31:32;95843.81;;;13.87;62.54
11621;BME280;5866;49.094;11.900;2023-04-20T12:34:00;95832.22;;;13.31;62.52
11621;BME280;5866;49.094;11.900;2023-04-20T12:36:28;95829.38;;;13.53;63.94
11621;BME280;5866;49.094;11.900;2023-04-20T12:38:59;95831.41;;;13.73;62.90
11621;BME280;5866;49.094;11.900;2023-04-20T12:41:27;95827.41;;;13.05;64.56
11621;BME280;5866;49.094;11.900;2023-04-20T12:43:54;95831.34;;;12.22;69.39
11621;BME280;5866;49.094;11.900;2023-04-20T12:46:22;95827.97;;;12.57;71.45
11621;BME280;5866;49.094;11.900;2023-04-20T12:48:50;95824.03;;;13.32;66.49
11621;BME280;5866;49.094;11.900;2023-04-20T12:51:18;95817.97;;;12.88;68.57
11621;BME280;5866;49.094;11.900;2023-04-20T12:53:45;95818.34;;;12.70;68.91
11621;BME280;5866;49.094;11.900;2023-04-20T12:56:14;95808.44;;;13.72;66.57
11621;BME280;5866;49.094;11.900;2023-04-20T12:58:43;95810.91;;;13.73;65.26
11621;BME280;5866;49.094;11.900;2023-04-20T13:01:11;95810.59;;;13.62;65.09
11621;BME280;5866;49.094;11.900;2023-04-20T13:03:39;95816.50;;;13.57;66.27
11621;BME280;5866;49.094;11.900;2023-04-20T13:06:09;95803.06;;;14.20;61.99
11621;BME280;5866;49.094;11.900;2023-04-20T13:08:39;95799.06;;;13.54;64.13